Time;durP1;ratioP1;P1;durP2;ratioP2;P2;SDS_P1;SDS_P2;PMS_P1;PMS_P2;Temp;Humidity;BMP_temperature;BMP_pressure;BME280_temperature;BME280_humidity;BME280_pressure;Samples;Min_cycle;Max_cycle;Signal;HPM_P1;HPM_P2
2024/01/17 00:00:56;;;;;;;18.57;16.23;;;;;;;;;;4954437;28;20256;-86
2024/01/17 00:03:21;;;;;;;18.80;16.20;;;;;;;;;;4973867;28;20237;-88
2024/01/17 00:05:55;;;;;;;20.90;16.80;;;;;;;;;;4970942;28;20240;-88
2024/01/17 00:08:32;;;;;;;17.90;16.00;;;;;;;;;;4978362;28;20230;-85
2024/01/17 00:11:00;;;;;;;17.03;15.33;;;;;;;;;;4961008;28;20232;-85
2024/01/17 00:13:25;;;;;;;17.13;15.30;;;;;;;;;;4969126;28;20269;-86
2024/01/17 00:15:51;;;;;;;18.80;16.03;;;;;;;;;;4974845;28;20225;-86
2024/01/17 00:18:16;;;;;;;17.27;15.57;;;;;;;;;;4992226;28;20488;-88
2024/01/17 00:20:46;;;;;;;17.37;15.10;;;;;;;;;;4959614;28;20233;-88
2024/01/17 00:23:14;;;;;;;17.67;15.97;;;;;;;;;;4966271;28;20260;-86
2024/01/17 00:25:40;;;;;;;16.63;15.03;;;;;;;;;;4974298;28;20231;-86
2024/01/17 00:28:05;;;;;;;20.63;15.53;;;;;;;;;;4963795;28;20276;-87
2024/01/17 00:30:31;;;;;;;17.80;15.90;;;;;;;;;;4966981;28;20230;-87
2024/01/17 00:32:57;;;;;;;17.23;15.43;;;;;;;;;;4967721;28;20242;-88
2024/01/17 00:35:22;;;;;;;17.83;14.80;;;;;;;;;;4953976;28;21993;-88
2024/01/17 00:37:48;;;;;;;17.20;14.83;;;;;;;;;;4978091;28;20229;-87
2024/01/17 00:40:15;;;;;;;17.63;14.40;;;;;;;;;;4956589;28;20222;-88
2024/01/17 00:42:44;;;;;;;19.93;15.20;;;;;;;;;;4975583;28;20293;-86
2024/01/17 00:45:13;;;;;;;19.57;14.93;;;;;;;;;;4993812;28;20218;-87
2024/01/17 00:47:38;;;;;;;20.13;14.70;;;;;;;;;;4975890;28;20677;-85
2024/01/17 00:50:04;;;;;;;14.63;13.10;;;;;;;;;;4968833;28;20224;-84
2024/01/17 00:52:34;;;;;;;16.90;14.07;;;;;;;;;;4985728;28;20269;-83
2024/01/17 00:55:00;;;;;;;17.10;13.37;;;;;;;;;;4990899;28;20224;-83
2024/01/17 00:57:28;;;;;;;19.43;14.17;;;;;;;;;;4991994;28;20221;-83
2024/01/17 00:59:54;;;;;;;17.60;13.17;;;;;;;;;;4972628;28;20241;-84
2024/01/17 01:02:20;;;;;;;14.17;12.70;;;;;;;;;;4975845;28;20229;-85
2024/01/17 01:04:45;;;;;;;17.20;13.67;;;;;;;;;;4979304;28;20274;-85
2024/01/17 01:07:11;;;;;;;14.33;12.93;;;;;;;;;;4996878;28;20221;-84
2024/01/17 01:09:36;;;;;;;16.10;12.33;;;;;;;;;;5006777;28;20256;-83
2024/01/17 01:12:02;;;;;;;16.20;12.63;;;;;;;;;;4988897;28;20261;-84
2024/01/17 01:14:30;;;;;;;17.10;13.00;;;;;;;;;;4973012;28;20274;-83
2024/01/17 01:16:58;;;;;;;16.93;12.70;;;;;;;;;;4970937;28;20275;-86
2024/01/17 01:19:23;;;;;;;18.83;12.87;;;;;;;;;;4996887;28;20243;-87
2024/01/17 01:21:49;;;;;;;14.77;12.47;;;;;;;;;;4983809;28;20291;-87
2024/01/17 01:24:16;;;;;;;13.97;12.13;;;;;;;;;;4972947;28;20290;-86
2024/01/17 01:26:42;;;;;;;16.27;12.60;;;;;;;;;;4967438;28;20239;-86
2024/01/17 01:29:08;;;;;;;15.57;11.33;;;;;;;;;;4988178;28;20226;-87
2024/01/17 01:31:36;;;;;;;13.30;11.47;;;;;;;;;;4973227;28;20233;-90
2024/01/17 01:34:01;;;;;;;14.13;12.40;;;;;;;;;;4965877;28;20665;-87
2024/01/17 01:36:29;;;;;;;19.23;11.60;;;;;;;;;;4965631;28;20222;-85
2024/01/17 01:38:57;;;;;;;14.37;10.90;;;;;;;;;;4969082;28;20238;-86
2024/01/17 01:41:23;;;;;;;15.63;11.93;;;;;;;;;;4970364;28;20239;-86
2024/01/17 01:43:48;;;;;;;17.47;12.63;;;;;;;;;;4973777;28;20740;-87
2024/01/17 01:46:17;;;;;;;14.10;11.47;;;;;;;;;;4982690;28;20300;-86
2024/01/17 01:48:43;;;;;;;12.93;10.70;;;;;;;;;;4973022;28;20234;-86
2024/01/17 01:51:12;;;;;;;13.03;11.73;;;;;;;;;;4976485;28;20698;-85
2024/01/17 01:53:37;;;;;;;15.50;10.80;;;;;;;;;;4954266;28;20711;-88
2024/01/17 01:56:03;;;;;;;12.37;11.13;;;;;;;;;;4969613;28;20237;-87
2024/01/17 01:58:33;;;;;;;15.17;11.10;;;;;;;;;;4970938;28;20604;-86
2024/01/17 02:01:01;;;;;;;13.50;11.00;;;;;;;;;;4970303;28;20770;-88
2024/01/17 02:03:29;;;;;;;11.13;9.97;;;;;;;;;;4950887;28;20227;-86
2024/01/17 02:05:54;;;;;;;15.57;11.30;;;;;;;;;;4941946;28;20233;-85
2024/01/17 02:08:20;;;;;;;13.57;10.97;;;;;;;;;;4958438;28;20226;-87
2024/01/17 02:10:45;;;;;;;12.03;10.77;;;;;;;;;;4965090;28;20234;-89
2024/01/17 02:13:11;;;;;;;14.03;9.33;;;;;;;;;;4985042;28;20218;-87
2024/01/17 02:15:36;;;;;;;11.93;10.60;;;;;;;;;;4958322;28;20253;-89
2024/01/17 02:18:02;;;;;;;11.87;10.60;;;;;;;;;;4966441;28;20226;-86
2024/01/17 02:20:28;;;;;;;14.40;10.53;;;;;;;;;;4949468;28;20238;-85
2024/01/17 02:22:53;;;;;;;13.17;10.57;;;;;;;;;;4964734;28;20227;-85
2024/01/17 02:25:21;;;;;;;13.00;10.80;;;;;;;;;;4967802;28;20229;-88
2024/01/17 02:27:47;;;;;;;11.40;10.20;;;;;;;;;;4964908;28;20230;-85
2024/01/17 02:30:20;;;;;;;11.90;10.67;;;;;;;;;;4956882;28;20226;-85
2024/01/17 02:32:48;;;;;;;12.67;9.37;;;;;;;;;;4966898;28;20309;-87
2024/01/17 02:35:14;;;;;;;12.63;10.00;;;;;;;;;;4964334;28;20224;-81
2024/01/17 02:37:39;;;;;;;12.17;10.27;;;;;;;;;;4955440;28;20648;-86
2024/01/17 02:40:05;;;;;;;11.27;8.57;;;;;;;;;;4952226;28;20320;-85
2024/01/17 02:42:33;;;;;;;12.67;9.47;;;;;;;;;;4951557;28;20218;-86
2024/01/17 02:45:01;;;;;;;11.87;10.00;;;;;;;;;;4936588;28;20225;-88
2024/01/17 02:47:26;;;;;;;11.13;9.03;;;;;;;;;;4975655;28;20228;-87
2024/01/17 02:49:52;;;;;;;15.50;9.77;;;;;;;;;;4950745;28;20244;-87
2024/01/17 02:52:17;;;;;;;10.27;9.17;;;;;;;;;;4960277;28;20304;-88
2024/01/17 02:54:43;;;;;;;9.17;8.07;;;;;;;;;;4954275;28;20218;-88
2024/01/17 02:57:08;;;;;;;9.50;8.40;;;;;;;;;;4931450;28;20221;-86
2024/01/17 02:59:36;;;;;;;11.63;9.10;;;;;;;;;;4956349;28;20675;-85
2024/01/17 03:02:02;;;;;;;12.97;9.00;;;;;;;;;;4959628;28;20341;-85
2024/01/17 03:04:27;;;;;;;12.60;8.93;;;;;;;;;;4943157;28;20233;-86
2024/01/17 03:06:55;;;;;;;10.63;8.73;;;;;;;;;;4975700;28;20706;-88
2024/01/17 03:09:24;;;;;;;12.23;9.70;;;;;;;;;;4960368;28;20225;-88
2024/01/17 03:11:49;;;;;;;11.37;9.00;;;;;;;;;;4973880;28;20226;-88
2024/01/17 03:14:17;;;;;;;10.70;9.03;;;;;;;;;;4960256;28;20225;-88
2024/01/17 03:16:43;;;;;;;12.07;9.47;;;;;;;;;;4955971;28;20896;-87
2024/01/17 03:19:08;;;;;;;12.90;9.50;;;;;;;;;;4960032;28;20213;-87
2024/01/17 03:21:34;;;;;;;13.33;9.30;;;;;;;;;;4962433;28;20426;-87
2024/01/17 03:24:00;;;;;;;10.77;9.43;;;;;;;;;;4970010;28;20252;-87
2024/01/17 03:26:26;;;;;;;10.53;9.23;;;;;;;;;;4952097;28;20222;-87
2024/01/17 03:28:56;;;;;;;11.43;8.93;;;;;;;;;;4958201;28;20298;-86
2024/01/17 03:31:21;;;;;;;15.13;9.03;;;;;;;;;;4932750;28;20232;-87
2024/01/17 03:33:47;;;;;;;11.83;8.77;;;;;;;;;;4963325;28;20643;-88
2024/01/17 03:36:12;;;;;;;10.03;8.60;;;;;;;;;;4928399;28;20218;-89
2024/01/17 03:38:39;;;;;;;14.60;9.17;;;;;;;;;;4963133;28;20615;-86
2024/01/17 03:41:08;;;;;;;15.20;8.63;;;;;;;;;;4961637;28;20275;-87
2024/01/17 03:43:34;;;;;;;11.30;8.50;;;;;;;;;;4967496;28;20225;-86
2024/01/17 03:46:02;;;;;;;15.53;8.90;;;;;;;;;;4956818;28;20225;-87
2024/01/17 03:48:28;;;;;;;12.10;8.80;;;;;;;;;;4951533;28;20241;-86
2024/01/17 03:50:54;;;;;;;11.20;8.83;;;;;;;;;;4921963;28;20230;-87
2024/01/17 03:53:19;;;;;;;10.17;7.67;;;;;;;;;;4952769;28;20278;-86
2024/01/17 03:55:47;;;;;;;11.47;8.77;;;;;;;;;;4952605;28;20226;-88
2024/01/17 04:02:03;;;;;;;8.90;8.00;;;;;;;;;;4977146;28;20662;-88
2024/01/17 04:04:28;;;;;;;9.73;8.47;;;;;;;;;;4946850;28;20284;-85
2024/01/17 04:06:55;;;;;;;9.90;7.97;;;;;;;;;;4975112;28;20703;-88
2024/01/17 04:09:20;;;;;;;9.53;8.53;;;;;;;;;;4959290;28;20218;-89
2024/01/17 04:11:48;;;;;;;12.67;8.80;;;;;;;;;;4968196;28;20227;-88
2024/01/17 04:14:14;;;;;;;10.90;8.67;;;;;;;;;;4961484;28;20221;-88
2024/01/17 04:16:42;;;;;;;10.30;8.47;;;;;;;;;;4952815;28;20226;-87
2024/01/17 04:19:08;;;;;;;10.70;8.63;;;;;;;;;;4929532;28;20317;-87
2024/01/17 04:21:34;;;;;;;14.70;8.73;;;;;;;;;;4959797;28;20321;-88
2024/01/17 04:23:59;;;;;;;14.97;12.83;;;;;;;;;;4965119;28;20226;-87
2024/01/17 04:26:25;;;;;;;11.67;8.30;;;;;;;;;;4969147;28;20228;-86
2024/01/17 04:28:51;;;;;;;8.83;8.03;;;;;;;;;;4939778;29;20254;-87
2024/01/17 04:31:27;;;;;;;11.83;7.87;;;;;;;;;;4949189;28;20706;-86
2024/01/17 04:33:53;;;;;;;8.77;7.87;;;;;;;;;;4964133;28;20252;-85
2024/01/17 04:36:19;;;;;;;10.00;8.17;;;;;;;;;;4954381;28;20222;-86
2024/01/17 04:38:45;;;;;;;9.03;8.13;;;;;;;;;;4928498;28;20230;-86
2024/01/17 04:41:15;;;;;;;8.70;7.90;;;;;;;;;;4920785;28;20218;-85
2024/01/17 04:43:41;;;;;;;8.30;7.50;;;;;;;;;;4961186;28;20237;-85
2024/01/17 04:46:12;;;;;;;11.97;8.27;;;;;;;;;;4960749;28;20609;-87
2024/01/17 04:48:45;;;;;;;8.13;7.30;;;;;;;;;;4961018;28;20230;-87
2024/01/17 04:51:11;;;;;;;9.83;7.90;;;;;;;;;;4958290;28;20235;-86
2024/01/17 04:53:37;;;;;;;12.27;8.60;;;;;;;;;;4957288;28;20258;-85
2024/01/17 04:56:05;;;;;;;9.20;7.73;;;;;;;;;;4944664;28;20304;-84
2024/01/17 04:58:32;;;;;;;8.83;7.93;;;;;;;;;;4982607;28;20230;-86
2024/01/17 05:01:00;;;;;;;12.73;8.03;;;;;;;;;;4940309;28;20294;-87
2024/01/17 05:03:26;;;;;;;11.67;7.53;;;;;;;;;;4972383;28;20317;-86
2024/01/17 05:05:51;;;;;;;8.87;7.63;;;;;;;;;;4957090;28;20225;-88
2024/01/17 05:08:17;;;;;;;12.10;7.57;;;;;;;;;;4962662;28;20238;-87
2024/01/17 05:10:43;;;;;;;10.27;8.13;;;;;;;;;;4943335;28;20230;-86
2024/01/17 05:13:12;;;;;;;9.73;7.50;;;;;;;;;;4959709;28;20241;-87
2024/01/17 05:15:40;;;;;;;9.97;7.50;;;;;;;;;;4965258;28;20221;-88
2024/01/17 05:18:06;;;;;;;9.27;7.00;;;;;;;;;;4970497;28;20300;-86
2024/01/17 05:20:34;;;;;;;10.53;7.40;;;;;;;;;;4945772;28;20258;-85
2024/01/17 05:23:02;;;;;;;9.37;7.50;;;;;;;;;;4940003;28;20289;-85
2024/01/17 05:25:28;;;;;;;10.57;6.80;;;;;;;;;;4968337;28;20237;-83
2024/01/17 05:27:56;;;;;;;9.10;6.63;;;;;;;;;;4985773;28;20226;-88
2024/01/17 05:30:24;;;;;;;8.90;6.73;;;;;;;;;;4957330;28;20257;-88
2024/01/17 05:32:53;;;;;;;8.57;7.03;;;;;;;;;;4941148;28;20248;-89
2024/01/17 05:35:19;;;;;;;14.10;6.37;;;;;;;;;;4968398;28;20314;-87
2024/01/17 05:37:46;;;;;;;10.23;6.97;;;;;;;;;;4953616;28;20244;-87
2024/01/17 05:40:14;;;;;;;7.30;5.80;;;;;;;;;;4968033;28;20695;-86
2024/01/17 05:42:46;;;;;;;7.50;5.87;;;;;;;;;;4943583;28;20309;-88
2024/01/17 05:45:11;;;;;;;7.53;6.23;;;;;;;;;;4959523;28;20229;-87
2024/01/17 05:47:38;;;;;;;9.37;6.70;;;;;;;;;;4948323;28;20738;-86
2024/01/17 05:50:08;;;;;;;9.93;6.37;;;;;;;;;;4950865;28;20226;-90
2024/01/17 05:52:37;;;;;;;6.93;5.80;;;;;;;;;;4926257;28;21138;-87
2024/01/17 05:55:03;;;;;;;7.70;6.03;;;;;;;;;;4947203;28;20234;-87
2024/01/17 05:57:29;;;;;;;10.63;5.70;;;;;;;;;;4926698;28;20221;-88
2024/01/17 05:59:54;;;;;;;7.13;5.53;;;;;;;;;;4942745;28;20233;-87
2024/01/17 06:02:22;;;;;;;7.80;6.17;;;;;;;;;;4957730;28;20225;-87
2024/01/17 06:04:47;;;;;;;7.37;6.27;;;;;;;;;;4964546;28;20218;-89
2024/01/17 06:07:14;;;;;;;6.97;5.47;;;;;;;;;;4974823;28;20285;-89
2024/01/17 06:09:43;;;;;;;5.93;5.43;;;;;;;;;;4958180;28;20237;-89
2024/01/17 06:12:10;;;;;;;7.50;5.40;;;;;;;;;;4965723;28;20904;-88
2024/01/17 06:14:36;;;;;;;7.43;5.93;;;;;;;;;;4943263;28;20222;-88
2024/01/17 06:17:01;;;;;;;7.97;6.00;;;;;;;;;;4965416;28;20226;-87
2024/01/17 06:19:27;;;;;;;5.90;5.00;;;;;;;;;;4945212;28;20221;-87
2024/01/17 06:21:55;;;;;;;7.03;5.47;;;;;;;;;;4951238;28;20228;-88
2024/01/17 06:24:20;;;;;;;6.70;5.00;;;;;;;;;;4951515;28;20229;-87
2024/01/17 06:26:48;;;;;;;6.93;5.77;;;;;;;;;;4959287;28;20435;-87
2024/01/17 06:29:14;;;;;;;9.63;5.17;;;;;;;;;;4939294;28;20329;-86
2024/01/17 06:31:42;;;;;;;9.17;5.50;;;;;;;;;;4958876;28;20221;-88
2024/01/17 06:34:07;;;;;;;7.57;5.67;;;;;;;;;;4953362;28;20745;-88
2024/01/17 06:36:36;;;;;;;6.77;5.00;;;;;;;;;;4972270;28;20226;-88
2024/01/17 06:39:04;;;;;;;6.83;5.23;;;;;;;;;;4961742;28;20233;-86
2024/01/17 06:41:32;;;;;;;5.60;5.00;;;;;;;;;;4952949;28;20304;-86
2024/01/17 06:44:00;;;;;;;8.03;4.87;;;;;;;;;;4955444;28;20840;-87
2024/01/17 06:46:26;;;;;;;5.57;4.93;;;;;;;;;;4954063;28;20222;-86
2024/01/17 06:48:51;;;;;;;8.17;4.97;;;;;;;;;;4958511;28;20284;-87
2024/01/17 06:51:20;;;;;;;6.83;4.50;;;;;;;;;;4956617;28;20218;-87
2024/01/17 06:53:46;;;;;;;6.37;4.40;;;;;;;;;;4951703;28;20233;-87
2024/01/17 06:56:11;;;;;;;8.40;5.03;;;;;;;;;;4940699;28;20257;-87
2024/01/17 06:58:39;;;;;;;9.53;4.87;;;;;;;;;;4963263;28;20580;-77
2024/01/17 07:01:07;;;;;;;7.07;4.73;;;;;;;;;;4983504;28;20318;-78
2024/01/17 07:03:32;;;;;;;6.13;4.73;;;;;;;;;;4967391;28;20308;-78
2024/01/17 07:05:58;;;;;;;8.80;4.87;;;;;;;;;;4952152;28;20236;-78
2024/01/17 07:08:23;;;;;;;8.40;4.07;;;;;;;;;;4951224;28;20225;-77
2024/01/17 07:10:49;;;;;;;5.43;4.10;;;;;;;;;;4968875;28;20238;-77
2024/01/17 07:13:14;;;;;;;7.80;4.40;;;;;;;;;;4968037;28;20222;-78
2024/01/17 07:15:42;;;;;;;6.70;4.00;;;;;;;;;;4952298;28;20215;-77
2024/01/17 07:18:08;;;;;;;5.73;4.07;;;;;;;;;;4962242;28;20249;-77
2024/01/17 07:20:33;;;;;;;8.47;4.67;;;;;;;;;;4952107;28;20222;-78
2024/01/17 07:23:01;;;;;;;7.07;4.23;;;;;;;;;;4952162;28;20621;-78
2024/01/17 07:25:27;;;;;;;5.50;4.63;;;;;;;;;;4966603;28;20774;-78
2024/01/17 07:27:52;;;;;;;7.87;5.27;;;;;;;;;;4952235;28;20226;-77
2024/01/17 07:30:19;;;;;;;5.87;4.37;;;;;;;;;;4952287;28;20221;-77
2024/01/17 07:32:45;;;;;;;5.57;4.13;;;;;;;;;;4947331;28;20292;-78
2024/01/17 07:35:10;;;;;;;4.80;4.30;;;;;;;;;;4951031;28;20679;-77
2024/01/17 07:37:36;;;;;;;10.13;4.80;;;;;;;;;;4965726;28;20816;-77
2024/01/17 07:40:04;;;;;;;9.70;4.57;;;;;;;;;;4968235;28;20989;-77
2024/01/17 07:42:30;;;;;;;6.00;5.07;;;;;;;;;;4959998;28;20218;-77
2024/01/17 07:45:01;;;;;;;4.97;4.47;;;;;;;;;;4982083;28;20218;-77
2024/01/17 07:47:29;;;;;;;7.13;4.40;;;;;;;;;;4966176;28;20229;-77
2024/01/17 07:49:59;;;;;;;6.63;4.73;;;;;;;;;;4967889;28;20257;-78
2024/01/17 07:52:27;;;;;;;7.30;5.13;;;;;;;;;;4951541;28;20317;-77
2024/01/17 07:54:53;;;;;;;8.27;5.23;;;;;;;;;;4941602;28;20267;-76
2024/01/17 07:57:18;;;;;;;8.80;4.90;;;;;;;;;;4948598;28;20958;-77
2024/01/17 07:59:44;;;;;;;8.73;4.73;;;;;;;;;;4966235;28;20226;-76
2024/01/17 08:02:10;;;;;;;5.63;5.13;;;;;;;;;;4963706;28;20214;-78
2024/01/17 08:04:38;;;;;;;5.80;4.83;;;;;;;;;;4942936;28;20751;-77
2024/01/17 08:07:03;;;;;;;10.67;5.50;;;;;;;;;;4943895;28;20225;-78
2024/01/17 08:09:29;;;;;;;9.40;5.70;;;;;;;;;;4982495;28;20774;-76
2024/01/17 08:11:58;;;;;;;7.47;6.27;;;;;;;;;;4949405;28;20723;-77
2024/01/17 08:14:26;;;;;;;6.57;5.00;;;;;;;;;;4941613;28;20242;-77
2024/01/17 08:16:54;;;;;;;9.53;5.50;;;;;;;;;;4967511;28;20821;-76
2024/01/17 08:19:22;;;;;;;6.70;5.33;;;;;;;;;;4958270;28;20234;-77
2024/01/17 08:21:53;;;;;;;6.50;5.40;;;;;;;;;;4977705;28;20252;-76
2024/01/17 08:24:19;;;;;;;5.70;5.10;;;;;;;;;;4954872;28;20218;-77
2024/01/17 08:26:49;;;;;;;7.80;4.97;;;;;;;;;;4967216;28;20229;-77
2024/01/17 08:29:16;;;;;;;7.83;5.60;;;;;;;;;;4953608;28;20244;-77
2024/01/17 08:31:42;;;;;;;11.77;7.53;;;;;;;;;;4968981;28;20226;-77
2024/01/17 08:34:14;;;;;;;9.50;6.63;;;;;;;;;;4950512;28;20389;-76
2024/01/17 08:36:42;;;;;;;17.33;10.53;;;;;;;;;;4973228;28;20777;-76
2024/01/17 08:39:10;;;;;;;38.23;23.70;;;;;;;;;;4961449;28;20226;-77
2024/01/17 08:41:41;;;;;;;13.00;8.93;;;;;;;;;;4985141;28;20233;-76
2024/01/17 08:44:07;;;;;;;6.83;6.17;;;;;;;;;;4970982;28;20226;-76
2024/01/17 08:46:32;;;;;;;7.57;5.90;;;;;;;;;;4947537;28;20231;-76
2024/01/17 08:48:58;;;;;;;6.20;5.60;;;;;;;;;;4946036;28;20226;-77
2024/01/17 08:51:24;;;;;;;7.03;5.47;;;;;;;;;;4954871;28;20229;-77
2024/01/17 08:53:50;;;;;;;8.83;6.10;;;;;;;;;;4956427;28;20841;-76
2024/01/17 08:56:15;;;;;;;8.20;7.10;;;;;;;;;;4971412;28;20229;-77
2024/01/17 08:58:42;;;;;;;9.23;7.70;;;;;;;;;;4972040;28;20233;-77
2024/01/17 09:01:13;;;;;;;9.63;7.37;;;;;;;;;;4967039;28;20226;-77
2024/01/17 09:03:44;;;;;;;13.23;9.23;;;;;;;;;;4953565;28;20287;-77
2024/01/17 09:06:09;;;;;;;10.33;7.27;;;;;;;;;;4984934;28;20234;-76
2024/01/17 09:08:36;;;;;;;10.33;7.30;;;;;;;;;;4962128;28;20234;-77
2024/01/17 09:11:05;;;;;;;8.60;6.93;;;;;;;;;;4952983;28;20226;-76
2024/01/17 09:13:31;;;;;;;8.67;7.60;;;;;;;;;;4954708;28;20238;-77
2024/01/17 09:15:57;;;;;;;11.60;7.10;;;;;;;;;;4950501;28;20226;-78
2024/01/17 09:18:23;;;;;;;11.10;7.80;;;;;;;;;;4969305;28;20229;-78
2024/01/17 09:20:48;;;;;;;12.80;7.40;;;;;;;;;;4959696;28;20222;-78
2024/01/17 09:23:18;;;;;;;7.67;6.87;;;;;;;;;;4968485;28;20728;-78
2024/01/17 09:25:44;;;;;;;8.77;7.63;;;;;;;;;;4970125;28;20313;-77
2024/01/17 09:28:10;;;;;;;10.83;7.53;;;;;;;;;;4935274;28;20247;-76
2024/01/17 09:30:40;;;;;;;8.20;7.40;;;;;;;;;;4935522;28;20223;-78
2024/01/17 09:33:11;;;;;;;8.53;7.27;;;;;;;;;;4967212;28;20695;-78
2024/01/17 09:35:42;;;;;;;8.87;7.23;;;;;;;;;;4988643;28;20222;-78
2024/01/17 09:38:08;;;;;;;9.27;7.20;;;;;;;;;;4949082;28;20229;-78
2024/01/17 09:40:34;;;;;;;7.80;6.87;;;;;;;;;;4952136;28;20650;-77
2024/01/17 09:42:59;;;;;;;9.33;7.37;;;;;;;;;;4956062;28;20554;-77
2024/01/17 09:45:29;;;;;;;7.67;6.87;;;;;;;;;;4943229;28;20226;-77
2024/01/17 09:48:01;;;;;;;9.17;7.17;;;;;;;;;;4954655;28;20221;-77
2024/01/17 09:50:27;;;;;;;8.70;7.20;;;;;;;;;;4953650;28;20221;-77
2024/01/17 09:52:53;;;;;;;9.90;7.33;;;;;;;;;;4962702;28;20226;-78
2024/01/17 09:55:19;;;;;;;8.77;6.90;;;;;;;;;;4967448;28;20269;-77
2024/01/17 09:57:49;;;;;;;7.23;6.57;;;;;;;;;;4969117;28;20640;-78
2024/01/17 10:00:18;;;;;;;8.17;7.37;;;;;;;;;;4930792;28;20265;-77
2024/01/17 10:02:46;;;;;;;7.80;6.83;;;;;;;;;;4968695;28;20880;-77
2024/01/17 10:05:11;;;;;;;11.67;8.43;;;;;;;;;;4952223;28;20228;-77
2024/01/17 10:07:37;;;;;;;10.33;7.70;;;;;;;;;;4952050;28;20226;-77
2024/01/17 10:10:05;;;;;;;9.50;6.70;;;;;;;;;;4969310;28;20233;-77
2024/01/17 10:12:31;;;;;;;7.87;7.10;;;;;;;;;;4959370;28;20231;-77
2024/01/17 10:15:05;;;;;;;9.50;7.10;;;;;;;;;;4969254;28;20229;-75
2024/01/17 10:17:36;;;;;;;8.10;7.30;;;;;;;;;;4967956;28;20225;-78
2024/01/17 10:20:02;;;;;;;8.47;7.17;;;;;;;;;;4952912;28;20226;-77
2024/01/17 10:22:31;;;;;;;8.43;6.87;;;;;;;;;;4983326;28;20280;-77
2024/01/17 10:24:57;;;;;;;8.97;6.97;;;;;;;;;;4972679;28;20290;-77
2024/01/17 10:27:22;;;;;;;11.00;7.53;;;;;;;;;;4947826;28;20727;-77
2024/01/17 10:29:48;;;;;;;8.17;6.57;;;;;;;;;;4952341;28;20350;-77
2024/01/17 10:32:13;;;;;;;7.30;6.20;;;;;;;;;;4965856;28;20224;-77
2024/01/17 10:34:44;;;;;;;10.37;7.40;;;;;;;;;;4966480;28;20661;-77
2024/01/17 10:37:11;;;;;;;9.37;6.50;;;;;;;;;;4943442;28;20329;-77
2024/01/17 10:39:37;;;;;;;8.40;7.17;;;;;;;;;;4953356;28;20245;-76
2024/01/17 10:42:05;;;;;;;8.47;7.50;;;;;;;;;;4940388;28;20605;-77
2024/01/17 10:44:31;;;;;;;8.13;7.00;;;;;;;;;;4967375;28;20253;-77
2024/01/17 10:46:58;;;;;;;8.87;7.57;;;;;;;;;;4953202;28;21069;-77
2024/01/17 10:49:30;;;;;;;7.43;6.20;;;;;;;;;;4958991;28;20234;-77
2024/01/17 10:51:58;;;;;;;10.40;7.17;;;;;;;;;;4979658;28;20218;-77
2024/01/17 10:54:26;;;;;;;14.77;10.23;;;;;;;;;;4981364;28;20324;-78
2024/01/17 10:56:54;;;;;;;12.50;10.43;;;;;;;;;;4957621;28;20214;-76
2024/01/17 10:59:23;;;;;;;13.67;11.10;;;;;;;;;;4969422;28;21183;-76
2024/01/17 11:01:56;;;;;;;12.10;8.37;;;;;;;;;;4954657;28;20250;-76
2024/01/17 11:04:31;;;;;;;13.37;9.87;;;;;;;;;;4982311;28;20226;-77
2024/01/17 11:06:57;;;;;;;11.90;7.37;;;;;;;;;;4945483;28;20221;-77
2024/01/17 11:09:26;;;;;;;7.93;7.13;;;;;;;;;;4947711;28;20983;-77
2024/01/17 11:11:51;;;;;;;7.57;6.87;;;;;;;;;;4952105;28;20261;-77
2024/01/17 11:14:17;;;;;;;8.67;6.83;;;;;;;;;;4948721;28;20268;-76
2024/01/17 11:16:46;;;;;;;8.37;7.43;;;;;;;;;;4948243;28;20645;-76
2024/01/17 11:19:11;;;;;;;12.40;7.50;;;;;;;;;;4965616;28;20232;-76
2024/01/17 11:21:37;;;;;;;10.53;7.23;;;;;;;;;;4965008;28;20230;-76
2024/01/17 11:24:12;;;;;;;9.20;7.10;;;;;;;;;;4960858;28;20754;-76
2024/01/17 11:26:41;;;;;;;7.80;6.90;;;;;;;;;;4981571;28;20225;-76
2024/01/17 11:29:44;;;;;;;9.33;7.23;;;;;;;;;;4966380;28;20218;-76
2024/01/17 11:32:28;;;;;;;9.87;7.13;;;;;;;;;;4962107;28;20308;-76
2024/01/17 11:34:54;;;;;;;9.00;7.07;;;;;;;;;;4972138;28;20237;-75
2024/01/17 11:37:28;;;;;;;8.57;6.47;;;;;;;;;;4949210;28;20226;-77
2024/01/17 11:39:57;;;;;;;9.73;6.67;;;;;;;;;;4948033;28;20261;-78
2024/01/17 11:42:25;;;;;;;12.67;7.93;;;;;;;;;;4966703;28;21021;-77
2024/01/17 11:44:51;;;;;;;10.17;7.57;;;;;;;;;;4958098;28;20281;-77
2024/01/17 11:47:24;;;;;;;10.20;7.47;;;;;;;;;;4968078;28;20218;-78
2024/01/17 11:49:56;;;;;;;9.43;7.70;;;;;;;;;;4967156;28;20312;-77
2024/01/17 11:52:29;;;;;;;12.47;8.30;;;;;;;;;;4968412;28;20305;-77
2024/01/17 11:54:57;;;;;;;9.70;7.07;;;;;;;;;;4952556;28;20226;-76
2024/01/17 11:57:28;;;;;;;10.17;7.57;;;;;;;;;;4943741;28;20228;-76
2024/01/17 12:00:10;;;;;;;8.37;6.77;;;;;;;;;;4952370;28;20223;-77
2024/01/17 12:02:41;;;;;;;8.40;7.37;;;;;;;;;;4952476;28;20237;-77
2024/01/17 12:05:08;;;;;;;10.17;7.20;;;;;;;;;;4951495;28;20654;-78
2024/01/17 12:07:44;;;;;;;11.50;7.60;;;;;;;;;;4954718;28;20247;-78
2024/01/17 12:10:11;;;;;;;7.70;6.90;;;;;;;;;;4942420;28;20237;-77
2024/01/17 12:12:46;;;;;;;9.80;6.93;;;;;;;;;;4955563;28;20727;-76
2024/01/17 12:15:14;;;;;;;7.93;6.53;;;;;;;;;;4955277;28;20221;-78
2024/01/17 12:17:40;;;;;;;7.87;6.63;;;;;;;;;;4972695;28;20258;-78
2024/01/17 12:20:07;;;;;;;8.37;6.73;;;;;;;;;;4972392;28;20234;-77
2024/01/17 12:22:32;;;;;;;10.10;6.70;;;;;;;;;;4938809;28;20304;-78
2024/01/17 12:24:58;;;;;;;9.77;7.07;;;;;;;;;;4957606;28;20318;-78
2024/01/17 12:27:24;;;;;;;11.70;6.90;;;;;;;;;;4956541;28;20222;-79
2024/01/17 12:29:55;;;;;;;7.33;6.40;;;;;;;;;;4973226;28;20226;-78
2024/01/17 12:32:22;;;;;;;7.53;6.20;;;;;;;;;;4956799;28;20711;-78
2024/01/17 12:34:47;;;;;;;8.57;6.37;;;;;;;;;;4975195;28;20234;-77
2024/01/17 12:37:13;;;;;;;7.57;6.70;;;;;;;;;;4951018;28;20280;-77
2024/01/17 12:39:40;;;;;;;7.77;6.50;;;;;;;;;;4967044;28;20238;-77
2024/01/17 12:42:11;;;;;;;9.27;7.97;;;;;;;;;;4958797;28;20872;-78
2024/01/17 12:44:36;;;;;;;10.83;9.10;;;;;;;;;;4959508;28;20232;-78
2024/01/17 12:47:02;;;;;;;18.03;12.33;;;;;;;;;;4975956;28;20226;-77
2024/01/17 12:49:28;;;;;;;14.90;11.47;;;;;;;;;;4975132;28;20226;-78
2024/01/17 12:51:54;;;;;;;8.03;6.97;;;;;;;;;;4975080;28;20226;-78
2024/01/17 12:54:22;;;;;;;7.90;6.57;;;;;;;;;;4973873;28;20222;-77
2024/01/17 12:56:51;;;;;;;7.40;6.70;;;;;;;;;;4962146;28;20742;-78
2024/01/17 12:59:16;;;;;;;8.30;7.03;;;;;;;;;;4975584;28;20222;-78
2024/01/17 13:01:44;;;;;;;13.93;8.73;;;;;;;;;;4990796;28;20226;-78
2024/01/17 13:04:12;;;;;;;8.63;7.20;;;;;;;;;;4977134;28;20238;-78
2024/01/17 13:06:44;;;;;;;11.63;8.90;;;;;;;;;;4965229;28;20230;-78
2024/01/17 13:09:17;;;;;;;10.10;7.03;;;;;;;;;;4964702;28;20210;-78
2024/01/17 13:11:48;;;;;;;10.13;7.23;;;;;;;;;;4966797;28;20306;-78
2024/01/17 13:14:17;;;;;;;7.03;6.30;;;;;;;;;;4996428;28;20238;-78
2024/01/17 13:16:43;;;;;;;7.83;6.30;;;;;;;;;;4984239;28;20233;-78
2024/01/17 13:19:10;;;;;;;7.70;6.40;;;;;;;;;;4964709;28;20647;-78
2024/01/17 13:21:37;;;;;;;7.23;6.53;;;;;;;;;;4973886;28;20222;-77
2024/01/17 13:24:05;;;;;;;11.17;6.40;;;;;;;;;;4972258;28;20680;-77
2024/01/17 13:26:35;;;;;;;9.57;6.67;;;;;;;;;;4947837;28;20230;-78
2024/01/17 13:29:04;;;;;;;9.70;6.43;;;;;;;;;;4974212;28;20273;-78
2024/01/17 13:31:34;;;;;;;8.10;6.50;;;;;;;;;;4979821;28;20226;-78
2024/01/17 13:34:07;;;;;;;8.10;6.47;;;;;;;;;;4951104;28;20239;-78
2024/01/17 13:36:33;;;;;;;9.37;6.37;;;;;;;;;;4984056;28;20704;-78
2024/01/17 13:38:59;;;;;;;7.13;6.30;;;;;;;;;;4955392;28;20230;-77
2024/01/17 13:41:26;;;;;;;6.73;6.13;;;;;;;;;;4964867;28;20226;-78
2024/01/17 13:43:54;;;;;;;10.13;6.30;;;;;;;;;;4963180;28;20230;-78
2024/01/17 13:46:19;;;;;;;7.80;6.60;;;;;;;;;;4958085;28;20230;-77
2024/01/17 13:48:48;;;;;;;8.03;6.37;;;;;;;;;;4957754;28;20600;-77
2024/01/17 13:51:14;;;;;;;8.67;6.70;;;;;;;;;;4973041;28;20222;-77
2024/01/17 13:53:42;;;;;;;11.00;6.77;;;;;;;;;;4989781;28;20226;-78
2024/01/17 13:56:10;;;;;;;7.37;6.13;;;;;;;;;;4955888;28;20612;-78
2024/01/17 13:58:39;;;;;;;8.27;6.77;;;;;;;;;;4940371;28;20235;-78
2024/01/17 14:01:08;;;;;;;7.07;6.37;;;;;;;;;;4988731;28;20234;-78
2024/01/17 14:03:39;;;;;;;8.67;6.67;;;;;;;;;;4988056;28;20248;-78
2024/01/17 14:06:05;;;;;;;7.40;6.07;;;;;;;;;;4992805;28;20232;-78
2024/01/17 14:08:33;;;;;;;9.47;6.30;;;;;;;;;;4986135;28;20210;-78
2024/01/17 14:10:58;;;;;;;8.10;6.77;;;;;;;;;;4975078;28;20226;-78
2024/01/17 14:13:24;;;;;;;7.20;6.50;;;;;;;;;;4991773;28;20297;-78
2024/01/17 14:15:49;;;;;;;6.77;6.10;;;;;;;;;;4973585;28;20222;-78
2024/01/17 14:18:18;;;;;;;7.07;6.13;;;;;;;;;;4968268;28;20221;-78
2024/01/17 14:20:44;;;;;;;8.90;6.33;;;;;;;;;;4977536;28;20234;-78
2024/01/17 14:23:10;;;;;;;7.40;6.60;;;;;;;;;;4973525;28;21023;-78
2024/01/17 14:25:35;;;;;;;7.57;6.80;;;;;;;;;;4973296;28;20230;-78
2024/01/17 14:28:02;;;;;;;8.90;6.70;;;;;;;;;;4955300;28;20614;-78
2024/01/17 14:30:29;;;;;;;8.67;6.70;;;;;;;;;;4948947;28;20234;-78
2024/01/17 14:32:56;;;;;;;8.80;6.90;;;;;;;;;;4963355;28;20606;-78
2024/01/17 14:35:24;;;;;;;8.87;7.13;;;;;;;;;;4971594;28;20304;-78
2024/01/17 14:37:50;;;;;;;9.27;7.60;;;;;;;;;;4929399;28;20325;-77